Time;durP1;ratioP1;P1;durP2;ratioP2;P2;SDS_P1;SDS_P2;PMS_P1;PMS_P2;Temp;Humidity;BMP_temperature;BMP_pressure;BME280_temperature;BME280_humidity;BME280_pressure;Samples;Min_cycle;Max_cycle;Signal;HPM_P1;HPM_P2
2023/08/14 00:07:11;;;;;;;0.20;0.20;;;;;;;17.77;95.56;99651.44;4944494;28;20050;-68
2023/08/14 00:09:39;;;;;;;0.20;0.20;;;;;;;17.75;96.40;99650.13;4949195;28;20061;-70
2023/08/14 00:15:39;;;;;;;0.20;0.20;;;;;;;17.63;98.05;99657.13;4963278;28;20152;-69
2023/08/14 00:22:23;;;;;;;0.20;0.20;;;;;;;17.55;98.94;99633.88;4985610;28;20233;-69
2023/08/14 00:24:51;;;;;;;0.30;0.30;;;;;;;17.51;100.00;99624.63;4989710;28;20042;-70
2023/08/14 00:28:09;;;;;;;0.20;0.20;;;;;;;17.51;100.00;99635.69;4989057;28;20046;-71
2023/08/14 00:35:03;;;;;;;0.20;0.20;;;;;;;17.44;100.00;99630.66;4915940;29;20094;-72
2023/08/14 00:50:58;;;;;;;0.20;0.20;;;;;;;17.31;100.00;99606.75;4910925;29;20571;-69
2023/08/14 00:53:53;;;;;;;0.20;0.20;;;;;;;17.26;100.00;99615.22;4905284;29;20390;-70
2023/08/14 01:04:55;;;;;;;0.20;0.20;;;;;;;17.33;100.00;99596.22;4987595;28;20034;-70
2023/08/14 01:07:21;;;;;;;0.20;0.20;;;;;;;17.38;100.00;99600.72;4986142;28;20045;-70
2023/08/14 01:34:23;;;;;;;0.20;0.20;;;;;;;17.42;100.00;99574.88;4887761;29;20079;-69
2023/08/14 01:41:15;;;;;;;0.20;0.20;;;;;;;17.48;100.00;99596.81;4906599;29;20107;-69
2023/08/14 01:43:52;;;;;;;0.20;0.20;;;;;;;17.49;100.00;99596.50;4888071;29;20083;-69
2023/08/14 01:46:18;;;;;;;;;;;;;;;17.51;100.00;99601.72;4883270;29;20119;-69
2023/08/14 01:52:31;;;;;;;0.20;0.20;;;;;;;17.51;100.00;99608.03;4976566;28;20545;-68
2023/08/14 01:55:24;;;;;;;0.20;0.20;;;;;;;17.55;100.00;99605.44;4986437;28;20050;-69
2023/08/14 01:57:50;;;;;;;0.20;0.20;;;;;;;17.55;100.00;99606.25;4966505;28;20477;-69
2023/08/14 02:05:05;;;;;;;0.20;0.20;;;;;;;17.53;100.00;99611.28;4985946;28;20223;-69
2023/08/14 02:07:35;;;;;;;0.20;0.20;;;;;;;17.60;100.00;99618.28;4981892;28;20045;-69
2023/08/14 02:10:41;;;;;;;0.28;0.28;;;;;;;17.63;100.00;99612.09;4970129;28;20384;-69
2023/08/14 02:15:20;;;;;;;0.20;0.20;;;;;;;17.64;100.00;99617.31;4964913;28;20112;-68
2023/08/14 02:21:59;;;;;;;0.20;0.20;;;;;;;17.73;99.45;99609.00;4961758;28;20043;-70
2023/08/14 02:24:29;;;;;;;0.20;0.20;;;;;;;17.73;100.00;99603.47;4965356;28;20441;-69
2023/08/14 02:27:36;;;;;;;0.20;0.20;;;;;;;17.69;100.00;99616.31;4932034;29;20055;-69
2023/08/14 02:34:52;;;;;;;0.20;0.20;;;;;;;17.55;100.00;99608.22;4907805;29;20359;-68
2023/08/14 02:37:46;;;;;;;0.20;0.20;;;;;;;17.52;100.00;99608.88;4895051;29;20452;-68
2023/08/14 02:40:33;;;;;;;0.20;0.20;;;;;;;17.52;100.00;99614.41;4907145;29;20154;-68
2023/08/14 02:43:50;;;;;;;0.20;0.20;;;;;;;17.51;100.00;99623.84;4911130;29;20142;-68
2023/08/14 02:50:21;;;;;;;0.20;0.20;;;;;;;17.56;100.00;99623.66;4922772;29;19946;-70
2023/08/14 02:52:49;;;;;;;0.20;0.20;;;;;;;17.57;100.00;99611.47;4888689;29;20082;-70
2023/08/14 02:55:16;;;;;;;0.20;0.20;;;;;;;17.60;100.00;99615.53;4928949;29;20048;-70
2023/08/14 03:06:57;;;;;;;0.20;0.20;;;;;;;17.62;100.00;99614.03;4983927;28;20770;-69
2023/08/14 03:13:54;;;;;;;0.20;0.20;;;;;;;17.55;100.00;99617.31;4962831;28;20055;-69
2023/08/14 03:24:50;;;;;;;0.20;0.20;;;;;;;17.56;100.00;99602.38;4982186;28;20046;-70
2023/08/14 03:39:29;;;;;;;0.20;0.20;;;;;;;17.86;100.00;99604.44;4944068;28;20047;-70
2023/08/14 03:42:01;;;;;;;0.20;0.20;;;;;;;17.89;100.00;99612.06;4931238;28;20151;-69
2023/08/14 03:44:45;;;;;;;0.20;0.20;;;;;;;17.96;100.00;99608.78;4947780;28;20052;-69
2023/08/14 03:55:34;;;;;;;0.20;0.20;;;;;;;18.11;99.32;99624.88;4985411;28;20061;-70
2023/08/14 03:58:02;;;;;;;0.30;0.30;;;;;;;17.94;99.19;99605.53;4963405;28;20066;-68
2023/08/14 04:00:29;;;;;;;0.20;0.20;;;;;;;18.04;99.20;99618.22;4948585;28;20062;-68
2023/08/14 04:02:55;;;;;;;0.20;0.20;;;;;;;18.04;99.93;99613.53;4981699;28;20050;-69
2023/08/14 04:05:21;;;;;;;0.28;0.28;;;;;;;18.05;99.66;99623.44;4968179;28;20081;-69
2023/08/14 04:07:47;;;;;;;0.20;0.20;;;;;;;18.05;100.00;99625.38;4972405;28;20125;-69
2023/08/14 04:11:04;;;;;;;0.20;0.20;;;;;;;18.03;100.00;99622.97;4986529;28;20654;-70
2023/08/14 04:13:57;;;;;;;0.20;0.20;;;;;;;18.02;100.00;99617.72;4978693;28;20053;-69
2023/08/14 04:24:01;;;;;;;0.20;0.20;;;;;;;17.80;100.00;99619.56;4946058;28;20058;-69
2023/08/14 04:27:20;;;;;;;0.20;0.20;;;;;;;17.83;100.00;99619.72;4904422;29;20111;-69
2023/08/14 04:30:59;;;;;;;0.20;0.20;;;;;;;17.83;100.00;99607.84;4893415;29;20151;-70
2023/08/14 04:34:15;;;;;;;0.20;0.20;;;;;;;17.84;100.00;99615.00;4893555;29;20060;-69
2023/08/14 04:36:46;;;;;;;0.28;0.28;;;;;;;17.84;100.00;99615.81;4902678;29;20059;-69
2023/08/14 04:47:23;;;;;;;0.20;0.20;;;;;;;17.97;100.00;99613.19;4905437;29;19946;-70
2023/08/14 04:54:02;;;;;;;0.22;0.22;;;;;;;18.22;99.03;99607.94;4901859;29;20066;-70
2023/08/14 04:56:54;;;;;;;0.20;0.20;;;;;;;18.31;98.35;99608.69;4890113;29;20116;-69
2023/08/14 04:59:21;;;;;;;0.20;0.20;;;;;;;18.38;98.19;99602.66;4944662;28;20063;-69
2023/08/14 05:01:47;;;;;;;0.20;0.20;;;;;;;18.43;97.61;99606.03;4920805;28;20047;-70
2023/08/14 05:08:27;;;;;;;0.20;0.20;;;;;;;18.45;96.13;99610.44;4963227;28;20042;-68
2023/08/14 05:14:48;;;;;;;0.30;0.30;;;;;;;18.62;95.80;99606.78;4920519;29;20060;-70
2023/08/14 05:21:33;;;;;;;0.30;0.30;;;;;;;18.65;94.11;99611.66;4915779;29;20526;-70
2023/08/14 05:28:12;;;;;;;0.20;0.20;;;;;;;18.63;93.46;99622.25;4925850;29;20427;-69
2023/08/14 05:35:09;;;;;;;0.30;0.30;;;;;;;18.83;91.86;99615.13;4923894;29;20055;-69
2023/08/14 05:45:26;;;;;;;0.30;0.30;;;;;;;18.82;90.29;99619.06;4954392;28;20419;-68
2023/08/14 05:47:52;;;;;;;0.22;0.22;;;;;;;18.77;91.20;99625.59;4964826;28;20058;-70
2023/08/14 05:55:07;;;;;;;0.20;0.20;;;;;;;18.44;93.69;99631.78;4973792;28;20153;-71
2023/08/14 05:57:34;;;;;;;0.20;0.20;;;;;;;18.40;94.64;99639.94;4983568;28;20077;-71
2023/08/14 06:13:04;;;;;;;0.30;0.30;;;;;;;18.47;94.80;99646.88;5005838;28;20065;-68
2023/08/14 06:15:30;;;;;;;0.20;0.20;;;;;;;18.48;95.08;99640.22;4973402;28;20096;-69
2023/08/14 06:17:56;;;;;;;0.30;0.30;;;;;;;18.52;95.26;99646.72;4983711;28;20099;-69
2023/08/14 06:24:10;;;;;;;0.30;0.30;;;;;;;19.04;92.21;99647.63;5000967;28;20103;-68
2023/08/14 06:26:36;;;;;;;0.30;0.30;;;;;;;19.11;90.53;99648.72;5003842;28;20053;-69
2023/08/14 06:32:33;;;;;;;0.30;0.30;;;;;;;19.46;88.62;99655.97;4986990;28;20534;-70
2023/08/14 06:39:22;;;;;;;0.30;0.30;;;;;;;19.49;87.56;99662.78;4943959;28;20525;-70
2023/08/14 06:42:33;;;;;;;0.30;0.30;;;;;;;19.55;86.71;99655.88;4940893;28;20055;-70
2023/08/14 06:45:48;;;;;;;0.30;0.30;;;;;;;19.53;86.51;99664.53;4945560;28;20145;-69
2023/08/14 07:02:10;;;;;;;0.30;0.30;;;;;;;20.75;79.05;99680.25;4939444;29;20675;-72
2023/08/14 07:13:20;;;;;;;0.20;0.20;;;;;;;20.29;80.72;99691.44;4954614;28;20859;-71
2023/08/14 07:19:27;;;;;;;0.20;0.20;;;;;;;20.17;81.73;99691.38;4971690;28;20496;-68
2023/08/14 07:21:53;;;;;;;0.30;0.30;;;;;;;20.05;82.45;99692.97;4978210;28;20054;-69
2023/08/14 07:25:15;;;;;;;0.20;0.20;;;;;;;20.02;82.46;99690.09;4943588;28;20047;-69
2023/08/14 07:28:35;;;;;;;0.20;0.20;;;;;;;20.00;83.34;99709.84;4966260;28;20414;-72
2023/08/14 07:39:53;;;;;;;0.20;0.20;;;;;;;19.85;83.25;99719.59;4968573;28;20560;-70
2023/08/14 07:50:44;;;;;;;0.30;0.30;;;;;;;20.40;81.13;99714.00;4954248;28;20054;-70
2023/08/14 07:53:10;;;;;;;0.30;0.30;;;;;;;20.49;79.91;99731.38;4979918;28;20042;-70
2023/08/14 07:56:03;;;;;;;0.30;0.30;;;;;;;20.47;80.23;99741.22;4976823;28;20498;-70
2023/08/14 07:58:29;;;;;;;0.30;0.30;;;;;;;20.45;79.95;99737.97;4970561;28;20856;-70
2023/08/14 08:09:44;;;;;;;0.30;0.30;;;;;;;20.05;83.55;99744.91;4980123;28;20411;-69
2023/08/14 08:12:11;;;;;;;;;;;;;;;20.08;82.44;99746.97;4993371;28;20422;-69
2023/08/14 08:35:59;;;;;;;0.30;0.30;;;;;;;19.81;85.09;99755.50;4989944;28;20444;-70
2023/08/14 08:39:16;;;;;;;0.30;0.30;;;;;;;19.96;84.01;99770.75;4969185;28;20054;-69
2023/08/14 08:46:12;;;;;;;0.30;0.30;;;;;;;20.20;82.68;99772.00;4985555;28;20125;-70
2023/08/14 08:49:09;;;;;;;0.22;0.22;;;;;;;20.13;82.60;99768.97;4987916;28;20038;-68
2023/08/14 08:52:40;;;;;;;0.30;0.30;;;;;;;20.23;82.92;99770.53;4993290;28;20110;-69
2023/08/14 09:16:15;;;;;;;0.20;0.20;;;;;;;19.89;83.53;99805.69;4930384;28;20121;-69
2023/08/14 09:19:03;;;;;;;;;;;;;;;19.85;83.73;99811.13;4939919;28;20541;-70
2023/08/14 09:21:30;;;;;;;0.20;0.20;;;;;;;19.89;83.33;99806.53;4897976;29;19926;-69
2023/08/14 09:29:07;;;;;;;0.30;0.30;;;;;;;20.13;82.68;99816.13;4890613;29;20110;-69
2023/08/14 09:32:00;;;;;;;0.30;0.30;;;;;;;20.29;82.17;99819.13;4859869;29;20055;-69
2023/08/14 09:39:14;;;;;;;0.20;0.20;;;;;;;20.22;81.46;99819.66;4943483;28;20054;-68
2023/08/14 09:50:49;;;;;;;0.20;0.20;;;;;;;20.10;82.63;99825.16;4977987;28;20166;-70
2023/08/14 09:53:46;;;;;;;0.20;0.20;;;;;;;20.03;83.21;99833.22;4986278;28;20177;-69
2023/08/14 09:56:14;;;;;;;0.20;0.20;;;;;;;20.01;83.70;99841.06;4963848;28;20594;-69
2023/08/14 09:58:41;;;;;;;0.22;0.22;;;;;;;19.91;83.97;99848.59;4966185;28;20117;-69
2023/08/14 10:01:57;;;;;;;0.20;0.20;;;;;;;19.83;84.34;99839.19;4986809;28;20057;-70
2023/08/14 10:04:53;;;;;;;0.20;0.20;;;;;;;19.78;84.82;99838.56;4961579;28;20077;-69
2023/08/14 10:07:47;;;;;;;0.30;0.30;;;;;;;19.77;84.48;99845.28;4955121;28;20038;-68
2023/08/14 10:10:17;;;;;;;0.30;0.30;;;;;;;19.80;84.42;99839.88;4937227;28;20631;-69
2023/08/14 10:21:15;;;;;;;0.20;0.20;;;;;;;19.70;84.66;99856.88;4916392;29;20066;-70
2023/08/14 10:32:18;;;;;;;0.30;0.30;;;;;;;20.53;81.63;99862.84;4921539;28;20736;-70
2023/08/14 10:47:43;;;;;;;;;;;;;;;20.16;82.28;99870.16;4959245;28;20179;-70
2023/08/14 10:53:41;;;;;;;0.30;0.30;;;;;;;20.17;81.87;99875.38;4963572;28;20557;-68
2023/08/14 10:56:07;;;;;;;0.20;0.20;;;;;;;20.26;82.21;99876.13;4977373;28;20116;-68
2023/08/14 10:58:39;;;;;;;0.30;0.30;;;;;;;20.48;80.99;99885.28;4973164;28;20049;-70
2023/08/14 11:01:07;;;;;;;0.20;0.20;;;;;;;20.76;80.25;99883.88;4971443;28;20054;-69
2023/08/14 11:03:54;;;;;;;0.30;0.30;;;;;;;21.09;78.72;99877.50;4998649;28;20055;-69
2023/08/14 11:06:22;;;;;;;0.30;0.30;;;;;;;21.26;77.32;99882.06;4974069;28;20128;-69
2023/08/14 11:08:55;;;;;;;0.30;0.30;;;;;;;21.47;76.99;99875.56;4997405;28;20053;-70
2023/08/14 11:11:21;;;;;;;0.30;0.30;;;;;;;21.95;75.02;99865.59;4998217;28;20060;-69
2023/08/14 11:13:50;;;;;;;0.38;0.38;;;;;;;22.34;72.89;99872.72;4998596;28;20129;-69
2023/08/14 11:16:18;;;;;;;0.40;0.40;;;;;;;23.27;68.79;99870.06;4992699;28;20141;-70
2023/08/14 11:18:46;;;;;;;0.40;0.40;;;;;;;23.53;67.18;99871.50;4974098;28;20192;-69
2023/08/14 11:21:15;;;;;;;0.40;0.40;;;;;;;23.65;65.60;99874.22;4988563;28;20087;-69
2023/08/14 11:23:41;;;;;;;0.30;0.30;;;;;;;23.39;66.72;99877.53;4994160;28;20865;-69
2023/08/14 11:26:07;;;;;;;0.50;0.50;;;;;;;23.05;66.88;99875.06;4993125;28;20640;-69
2023/08/14 11:28:34;;;;;;;0.30;0.30;;;;;;;23.17;67.00;99877.75;4989772;28;20605;-70
2023/08/14 11:31:00;;;;;;;0.23;0.23;;;;;;;23.13;67.18;99881.66;4982192;28;20050;-69
2023/08/14 11:33:27;;;;;;;0.30;0.30;;;;;;;22.77;68.30;99875.94;4967530;28;20899;-70
2023/08/14 11:35:54;;;;;;;0.30;0.30;;;;;;;22.44;69.81;99885.31;4970423;28;20041;-69
2023/08/14 11:38:22;;;;;;;0.30;0.30;;;;;;;22.26;69.86;99884.78;5002163;28;20056;-70
2023/08/14 11:40:48;;;;;;;0.30;0.30;;;;;;;22.27;70.42;99892.81;4988760;28;20069;-69
2023/08/14 11:43:15;;;;;;;0.30;0.30;;;;;;;22.43;70.21;99887.28;4972785;28;20145;-69
2023/08/14 11:45:42;;;;;;;0.30;0.30;;;;;;;22.51;69.74;99889.16;4985850;28;20081;-69
2023/08/14 11:48:09;;;;;;;0.30;0.30;;;;;;;22.46;70.02;99889.34;5005324;28;20052;-70
2023/08/14 11:50:36;;;;;;;0.30;0.30;;;;;;;22.38;68.93;99895.91;5006584;28;20112;-69
2023/08/14 11:53:04;;;;;;;0.20;0.20;;;;;;;22.22;69.98;99887.47;5005120;28;20062;-69
2023/08/14 11:55:30;;;;;;;0.30;0.30;;;;;;;22.12;70.50;99894.31;4978624;28;20145;-70
2023/08/14 11:57:59;;;;;;;0.30;0.30;;;;;;;21.93;71.40;99903.28;5003071;28;20377;-70
2023/08/14 12:00:26;;;;;;;0.30;0.30;;;;;;;21.94;71.27;99902.94;5007358;28;20061;-70
2023/08/14 12:02:53;;;;;;;0.30;0.30;;;;;;;21.91;71.00;99906.44;4969632;28;20161;-70
2023/08/14 12:05:20;;;;;;;0.30;0.30;;;;;;;22.02;70.66;99903.19;4979620;28;20497;-69
2023/08/14 12:07:46;;;;;;;0.40;0.40;;;;;;;22.42;69.65;99896.00;5002702;28;20056;-70
2023/08/14 12:10:16;;;;;;;0.25;0.25;;;;;;;22.70;67.91;99903.56;4971012;28;20050;-70
2023/08/14 12:12:42;;;;;;;0.30;0.30;;;;;;;22.52;68.74;99898.31;4958977;28;20053;-70
2023/08/14 12:15:09;;;;;;;0.30;0.30;;;;;;;22.37;69.39;99891.50;4994821;28;20140;-70
2023/08/14 12:17:37;;;;;;;0.30;0.30;;;;;;;22.19;70.02;99899.31;4979914;28;20050;-70
2023/08/14 12:20:08;;;;;;;0.30;0.30;;;;;;;21.94;71.00;99911.28;4995137;28;20053;-69
2023/08/14 12:22:34;;;;;;;0.30;0.30;;;;;;;21.75;71.71;99905.50;5001768;28;20108;-69
2023/08/14 12:25:04;;;;;;;0.20;0.20;;;;;;;21.60;72.68;99905.03;5004027;28;20121;-70
2023/08/14 12:27:32;;;;;;;0.30;0.30;;;;;;;21.53;73.21;99902.81;4988656;28;20081;-69
2023/08/14 12:29:58;;;;;;;0.25;0.25;;;;;;;21.54;73.36;99906.38;4967937;28;20046;-69
2023/08/14 12:32:25;;;;;;;0.20;0.20;;;;;;;21.59;73.46;99902.56;4965895;28;20061;-69
2023/08/14 12:34:52;;;;;;;0.20;0.20;;;;;;;21.56;73.11;99904.09;4982089;28;20512;-69
2023/08/14 12:37:18;;;;;;;0.30;0.30;;;;;;;21.56;73.45;99906.06;4968841;28;20046;-67
2023/08/14 12:39:52;;;;;;;0.28;0.28;;;;;;;21.54;73.33;99906.38;4654607;28;10000198;-69
2023/08/14 12:42:19;;;;;;;0.30;0.30;;;;;;;21.56;73.47;99904.09;4976606;28;20084;-69
2023/08/14 12:44:47;;;;;;;0.30;0.30;;;;;;;21.67;73.18;99901.69;4991415;28;20085;-70
2023/08/14 12:47:13;;;;;;;0.30;0.30;;;;;;;21.84;72.66;99897.84;4995778;28;20588;-69
2023/08/14 12:49:39;;;;;;;0.30;0.30;;;;;;;21.96;72.02;99897.03;4989545;28;20545;-69
2023/08/14 12:52:06;;;;;;;0.20;0.20;;;;;;;22.00;71.98;99902.69;4984055;28;20054;-69
2023/08/14 12:54:32;;;;;;;0.20;0.20;;;;;;;21.93;71.90;99906.06;4959930;28;20514;-70
2023/08/14 12:56:58;;;;;;;0.30;0.30;;;;;;;21.92;72.49;99913.63;4992594;28;20046;-69
2023/08/14 12:59:24;;;;;;;0.30;0.30;;;;;;;21.99;72.56;99907.47;4985154;28;20060;-69
2023/08/14 13:01:52;;;;;;;0.32;0.32;;;;;;;22.10;72.17;99908.63;5014267;28;20091;-70
2023/08/14 13:04:18;;;;;;;0.30;0.30;;;;;;;22.16;71.83;99905.59;5022860;28;20084;-70
2023/08/14 13:06:44;;;;;;;0.20;0.20;;;;;;;22.20;71.51;99904.53;5002280;28;20141;-70
2023/08/14 13:09:12;;;;;;;0.30;0.30;;;;;;;22.27;71.56;99903.13;5001373;28;20040;-69
2023/08/14 13:11:39;;;;;;;0.30;0.30;;;;;;;22.31;71.77;99899.28;5004552;28;20042;-69
2023/08/14 13:14:07;;;;;;;0.20;0.20;;;;;;;22.37;71.49;99897.84;4998334;28;20050;-70
2023/08/14 13:16:33;;;;;;;0.30;0.30;;;;;;;22.41;71.15;99900.75;4977850;28;20530;-70
2023/08/14 13:19:01;;;;;;;0.30;0.30;;;;;;;22.50;70.76;99906.22;5001586;28;20390;-70
2023/08/14 13:21:30;;;;;;;0.30;0.30;;;;;;;22.63;70.59;99901.41;5002293;28;20061;-70
2023/08/14 13:23:56;;;;;;;0.30;0.30;;;;;;;22.75;69.81;99894.97;4965954;28;20389;-70
2023/08/14 13:26:23;;;;;;;0.30;0.30;;;;;;;22.95;68.66;99899.50;5005300;28;20064;-70
2023/08/14 13:28:49;;;;;;;0.30;0.30;;;;;;;22.95;68.85;99901.50;4971242;28;20060;-70
2023/08/14 13:31:15;;;;;;;0.30;0.30;;;;;;;22.91;68.92;99909.75;4984824;28;20061;-69
2023/08/14 13:33:41;;;;;;;0.30;0.30;;;;;;;22.84;68.91;99906.75;4991486;28;20433;-70
2023/08/14 13:36:10;;;;;;;0.30;0.30;;;;;;;22.78;69.03;99911.78;5004128;28;20521;-70
2023/08/14 13:38:38;;;;;;;0.30;0.30;;;;;;;22.66;69.67;99907.06;4975465;28;20449;-70
2023/08/14 13:41:05;;;;;;;0.30;0.30;;;;;;;22.60;69.91;99913.25;5006495;28;20085;-69
2023/08/14 13:43:31;;;;;;;0.30;0.30;;;;;;;22.59;70.27;99911.63;4989180;28;20066;-71
2023/08/14 13:45:57;;;;;;;0.30;0.30;;;;;;;22.61;70.02;99903.72;4972202;28;20045;-70
2023/08/14 13:48:24;;;;;;;0.20;0.20;;;;;;;22.64;70.14;99903.84;4989079;28;20111;-70
2023/08/14 13:50:50;;;;;;;0.30;0.30;;;;;;;22.65;69.89;99913.03;5005319;28;20097;-69
2023/08/14 13:53:17;;;;;;;0.20;0.20;;;;;;;22.54;69.98;99918.25;5005362;28;20187;-68
2023/08/14 13:55:44;;;;;;;0.30;0.30;;;;;;;22.40;70.41;99907.50;4974493;28;20395;-69
2023/08/14 13:58:11;;;;;;;0.20;0.20;;;;;;;22.44;70.68;99916.75;5004727;28;20550;-69
2023/08/14 14:00:37;;;;;;;0.20;0.20;;;;;;;22.46;70.70;99914.44;5003757;28;20079;-69
2023/08/14 14:03:04;;;;;;;0.30;0.30;;;;;;;22.63;70.61;99915.31;4987920;28;20672;-69
2023/08/14 14:05:30;;;;;;;0.30;0.30;;;;;;;22.75;69.69;99918.06;4989933;28;20049;-70
2023/08/14 14:07:56;;;;;;;0.30;0.30;;;;;;;22.73;69.25;99909.25;5003941;28;20536;-69
2023/08/14 14:10:24;;;;;;;0.30;0.30;;;;;;;22.73;69.48;99909.25;5006378;28;20061;-68
2023/08/14 14:12:51;;;;;;;0.30;0.30;;;;;;;22.75;69.22;99909.72;5002890;28;20304;-69
2023/08/14 14:15:17;;;;;;;0.30;0.30;;;;;;;22.82;69.12;99905.53;4987973;28;20077;-70
2023/08/14 14:17:43;;;;;;;0.30;0.30;;;;;;;22.93;68.65;99906.59;4989241;28;20139;-68
2023/08/14 14:20:10;;;;;;;0.30;0.30;;;;;;;23.10;67.67;99908.25;5007403;28;20309;-75
2023/08/14 14:22:36;;;;;;;0.30;0.30;;;;;;;23.15;67.31;99912.78;4990597;28;20536;-75
2023/08/14 14:25:03;;;;;;;0.22;0.22;;;;;;;23.16;67.36;99909.59;5003317;28;20834;-75
2023/08/14 14:27:31;;;;;;;0.30;0.30;;;;;;;23.14;67.33;99914.72;4987038;28;20564;-75
2023/08/14 14:29:58;;;;;;;0.30;0.30;;;;;;;23.15;67.38;99910.78;5002480;28;20386;-75
2023/08/14 14:32:24;;;;;;;0.30;0.30;;;;;;;23.12;67.57;99907.91;4998008;28;20517;-74
2023/08/14 14:34:50;;;;;;;0.30;0.30;;;;;;;23.17;67.68;99908.44;5003575;28;20149;-73
2023/08/14 14:37:16;;;;;;;0.30;0.30;;;;;;;23.33;67.57;99908.50;4981380;28;20136;-74
2023/08/14 14:39:43;;;;;;;0.38;0.38;;;;;;;23.64;65.75;99898.50;5005560;28;20045;-73
2023/08/14 14:42:09;;;;;;;0.30;0.30;;;;;;;23.89;64.46;99906.66;5013894;28;20592;-72
2023/08/14 14:44:36;;;;;;;0.30;0.30;;;;;;;23.96;63.60;99902.41;4998477;28;20296;-75
2023/08/14 14:47:02;;;;;;;0.30;0.30;;;;;;;23.92;62.95;99908.72;5008226;28;20112;-72
2023/08/14 14:49:29;;;;;;;1.10;1.10;;;;;;;24.38;61.00;99915.75;5006188;28;20050;-71
2023/08/14 14:52:00;;;;;;;0.30;0.30;;;;;;;25.35;57.59;99910.41;4994483;28;20057;-71
2023/08/14 14:54:27;;;;;;;0.30;0.30;;;;;;;25.14;57.50;99899.69;5006554;28;20049;-72
2023/08/14 14:56:53;;;;;;;0.30;0.30;;;;;;;24.70;58.13;99906.41;4995564;28;20038;-72
2023/08/14 14:59:19;;;;;;;0.30;0.30;;;;;;;24.45;60.94;99909.50;4997186;28;20049;-72
2023/08/14 15:01:47;;;;;;;0.80;0.80;;;;;;;24.28;61.59;99913.53;4989346;28;20391;-73
2023/08/14 15:04:13;;;;;;;0.80;0.80;;;;;;;25.64;56.99;99913.72;5009287;28;20136;-72
2023/08/14 15:06:41;;;;;;;0.30;0.30;;;;;;;25.88;54.35;99911.72;5000656;28;20045;-73
2023/08/14 15:09:07;;;;;;;0.30;0.30;;;;;;;25.17;56.04;99896.13;5008191;28;20049;-72
2023/08/14 15:11:34;;;;;;;0.30;0.30;;;;;;;24.63;58.55;99910.69;5023073;28;20096;-73
2023/08/14 15:14:00;;;;;;;0.30;0.30;;;;;;;24.14;59.74;99909.22;5009749;28;20211;-73
2023/08/14 15:16:26;;;;;;;0.30;0.30;;;;;;;23.66;60.19;99900.94;5021025;28;20521;-72
2023/08/14 15:18:54;;;;;;;0.30;0.30;;;;;;;23.40;61.48;99905.09;5005711;28;20407;-71
2023/08/14 15:21:21;;;;;;;0.30;0.30;;;;;;;23.46;61.56;99914.00;4973985;28;20056;-74
2023/08/14 15:23:47;;;;;;;0.32;0.32;;;;;;;23.44;61.47;99905.97;4996461;28;20123;-73
2023/08/14 15:26:13;;;;;;;0.30;0.30;;;;;;;23.40;61.59;99915.41;4971606;28;20041;-73
2023/08/14 15:28:40;;;;;;;0.30;0.30;;;;;;;23.29;61.69;99915.97;5007651;28;20077;-73
2023/08/14 15:31:06;;;;;;;0.30;0.30;;;;;;;23.18;62.77;99923.19;5005764;28;20443;-77
2023/08/14 15:33:33;;;;;;;;;;;;;;;23.05;62.98;99919.69;4972848;28;20327;-76
2023/08/14 15:36:00;;;;;;;0.20;0.20;;;;;;;22.91;62.51;99917.31;5008411;28;20436;-75
2023/08/14 15:38:26;;;;;;;0.30;0.30;;;;;;;22.78;62.66;99922.94;4987261;28;20048;-75
2023/08/14 15:40:52;;;;;;;0.30;0.30;;;;;;;22.75;62.21;99922.84;5006252;28;20056;-75
2023/08/14 15:43:18;;;;;;;0.68;0.68;;;;;;;22.98;61.31;99934.25;5020135;28;20543;-76
2023/08/14 15:45:45;;;;;;;0.90;0.90;;;;;;;24.61;56.29;99928.97;4972026;28;20306;-75
2023/08/14 15:48:11;;;;;;;0.80;0.80;;;;;;;26.01;52.31;99932.72;4653828;28;10000791;-76
2023/08/14 15:50:37;;;;;;;0.30;0.30;;;;;;;26.43;50.93;99930.91;4968412;28;20050;-78
2023/08/14 15:53:05;;;;;;;0.30;0.30;;;;;;;25.74;52.87;99929.91;4997007;28;20143;-76
2023/08/14 15:55:31;;;;;;;0.30;0.30;;;;;;;24.92;54.99;99944.00;4980589;28;20077;-76
2023/08/14 15:57:58;;;;;;;0.30;0.30;;;;;;;24.27;57.26;99931.44;5006785;28;20049;-76
2023/08/14 16:00:27;;;;;;;0.30;0.30;;;;;;;23.86;58.21;99938.06;5003540;28;20073;-75
2023/08/14 16:02:53;;;;;;;0.30;0.30;;;;;;;23.54;58.97;99935.31;5005585;28;20140;-73
2023/08/14 16:05:19;;;;;;;0.30;0.30;;;;;;;23.24;59.76;99941.28;5004049;28;20124;-73
2023/08/14 16:07:45;;;;;;;0.30;0.30;;;;;;;23.05;60.49;99942.00;4986007;28;20049;-74
2023/08/14 16:10:38;;;;;;;0.30;0.30;;;;;;;22.79;62.01;99943.25;4964072;28;20065;-75
2023/08/14 16:21:29;;;;;;;0.20;0.20;;;;;;;22.33;64.03;99963.78;4989965;28;20131;-74
2023/08/14 16:32:34;;;;;;;0.30;0.30;;;;;;;22.05;65.24;99964.50;5010700;28;20679;-76
2023/08/14 16:39:42;;;;;;;0.30;0.30;;;;;;;21.84;66.69;99967.41;5011747;28;20107;-75
2023/08/14 16:54:58;;;;;;;0.30;0.30;;;;;;;21.30;71.97;99963.59;5008680;28;20049;-71
2023/08/14 16:57:49;;;;;;;0.30;0.30;;;;;;;21.29;73.46;99984.22;5006656;28;20115;-72
2023/08/14 17:07:58;;;;;;;0.20;0.20;;;;;;;21.05;76.04;99996.88;4974951;28;20124;-75
2023/08/14 17:19:49;;;;;;;0.20;0.20;;;;;;;20.90;77.69;99998.34;4981345;28;20046;-75
2023/08/14 17:30:41;;;;;;;0.30;0.30;;;;;;;20.74;80.22;100011.19;4979235;28;20046;-75
2023/08/14 17:33:34;;;;;;;0.20;0.20;;;;;;;20.70;80.54;100019.38;4979042;28;20142;-75
2023/08/14 17:40:47;;;;;;;0.30;0.30;;;;;;;20.61;81.18;100013.09;4981208;28;20050;-76
2023/08/14 17:55:44;;;;;;;0.20;0.20;;;;;;;20.45;82.35;100013.69;4931306;28;20058;-72
2023/08/14 17:58:10;;;;;;;0.30;0.30;;;;;;;20.44;82.81;100009.25;4903006;28;20432;-74
2023/08/14 18:09:12;;;;;;;0.22;0.22;;;;;;;20.51;81.59;100006.78;4945242;28;20086;-72
2023/08/14 18:21:05;;;;;;;0.20;0.20;;;;;;;20.30;82.78;100017.84;4987588;28;20616;-72
2023/08/14 18:23:33;;;;;;;0.20;0.20;;;;;;;20.19;82.63;100008.25;4944449;28;20045;-74
2023/08/14 18:25:59;;;;;;;0.20;0.20;;;;;;;20.35;82.52;100023.19;4980471;28;20053;-75
2023/08/14 18:36:57;;;;;;;0.20;0.20;;;;;;;20.30;82.10;100036.47;4977625;28;21048;-75
2023/08/14 18:48:09;;;;;;;0.20;0.20;;;;;;;20.26;81.16;100042.66;4984606;28;20464;-75
2023/08/14 18:51:00;;;;;;;0.20;0.20;;;;;;;20.20;81.07;100038.47;4978802;28;20046;-72
2023/08/14 18:53:26;;;;;;;0.20;0.20;;;;;;;20.21;81.07;100051.19;4959580;28;20433;-72
2023/08/14 19:18:16;;;;;;;0.20;0.20;;;;;;;20.22;80.31;100057.59;5012765;28;20086;-71
2023/08/14 19:21:33;;;;;;;0.20;0.20;;;;;;;20.21;80.59;100056.75;4979680;28;20053;-71
2023/08/14 19:24:49;;;;;;;0.20;0.20;;;;;;;20.31;79.18;100044.44;4995190;28;20235;-72
2023/08/14 19:27:42;;;;;;;0.20;0.20;;;;;;;20.33;79.14;100047.69;4985116;28;20460;-74
2023/08/14 19:30:44;;;;;;;0.20;0.20;;;;;;;20.32;79.29;100053.59;4990388;28;20539;-74
2023/08/14 19:50:23;;;;;;;0.25;0.25;;;;;;;;;;4966581;28;20304;-72
2023/08/14 19:52:49;;;;;;;0.30;0.30;;;;;;;20.32;78.67;100050.84;4949960;28;20050;-72
2023/08/14 19:59:20;;;;;;;0.20;0.20;;;;;;;20.26;78.54;100051.00;4952545;28;20074;-72
2023/08/14 20:01:47;;;;;;;0.20;0.20;;;;;;;20.25;78.53;100054.94;4948610;28;20359;-72
2023/08/14 20:04:13;;;;;;;0.20;0.20;;;;;;;20.23;79.00;100053.66;4968699;28;20050;-72
2023/08/14 20:06:41;;;;;;;0.20;0.20;;;;;;;20.23;79.00;100056.44;5003416;28;20050;-74
2023/08/14 20:22:24;;;;;;;0.20;0.20;;;;;;;20.13;78.30;100057.59;4986917;28;20133;-71
2023/08/14 20:25:39;;;;;;;0.20;0.20;;;;;;;20.17;77.93;100066.91;4945487;28;20077;-72
2023/08/14 20:28:06;;;;;;;0.25;0.25;;;;;;;20.13;78.30;100068.69;4946957;28;20055;-71
2023/08/14 21:03:32;;;;;;;0.25;0.25;;;;;;;19.66;79.34;100084.16;5000543;28;20048;-71
2023/08/14 21:23:21;;;;;;;0.20;0.20;;;;;;;19.45;79.72;100088.75;4937022;28;20039;-73
2023/08/14 21:25:47;;;;;;;0.20;0.20;;;;;;;19.44;79.55;100096.28;4921678;28;20047;-73
2023/08/14 21:28:15;;;;;;;0.20;0.20;;;;;;;19.45;79.63;100092.38;4926319;29;20435;-70
2023/08/14 21:30:41;;;;;;;0.20;0.20;;;;;;;19.47;79.59;100092.03;4927285;29;20055;-70
2023/08/14 21:33:07;;;;;;;0.30;0.30;;;;;;;19.46;79.69;100104.25;4927608;29;20047;-70
2023/08/14 21:35:34;;;;;;;0.20;0.20;;;;;;;19.40;80.20;100100.84;4943964;28;20074;-73
2023/08/14 21:38:00;;;;;;;0.20;0.20;;;;;;;19.38;80.51;100101.19;4976833;28;20070;-73
2023/08/14 21:40:27;;;;;;;0.20;0.20;;;;;;;19.37;80.39;100096.78;4986712;28;20429;-74